createdAt,value
2023-02-19T00:01:17.336Z,101281.13
2023-02-19T00:03:47.959Z,101284.44
2023-02-19T00:06:14.763Z,101283.81
2023-02-19T00:08:41.683Z,101275.03
2023-02-19T00:11:10.337Z,101273.50
2023-02-19T00:13:44.939Z,101243.22
2023-02-19T00:16:15.647Z,101266.91
2023-02-19T00:18:42.932Z,101224.38
2023-02-19T00:21:10.239Z,101256.47
2023-02-19T00:23:37.436Z,101192.38
2023-02-19T00:26:17.289Z,101270.97
2023-02-19T00:28:45.502Z,101230.88
2023-02-19T00:31:15.590Z,101265.31
2023-02-19T00:33:42.442Z,101255.50
2023-02-19T00:36:09.423Z,101266.31
2023-02-19T00:38:36.876Z,101130.97
2023-02-19T00:41:19.212Z,101196.66
2023-02-19T00:43:55.764Z,101222.88
2023-02-19T00:46:24.669Z,101247.84
2023-02-19T00:48:52.683Z,101238.84
2023-02-19T00:51:20.167Z,101189.53
2023-02-19T00:53:47.034Z,101243.28
2023-02-19T00:56:13.828Z,101240.78
2023-02-19T00:58:40.655Z,101238.00
2023-02-19T01:01:07.901Z,101237.81
2023-02-19T01:03:35.656Z,101226.03
2023-02-19T01:06:02.700Z,101210.50
2023-02-19T01:08:31.183Z,101215.03
2023-02-19T01:10:58.560Z,101233.50
2023-02-19T01:13:25.371Z,101239.03
2023-02-19T01:15:52.303Z,101246.34
2023-02-19T01:18:19.193Z,101243.63
2023-02-19T01:20:45.938Z,101217.91
2023-02-19T01:23:13.558Z,101236.50
2023-02-19T01:25:41.275Z,101206.91
2023-02-19T01:28:08.204Z,101240.00
2023-02-19T01:30:37.358Z,101177.53
2023-02-19T01:33:07.005Z,101225.72
2023-02-19T01:35:33.855Z,101217.88
2023-02-19T01:38:00.680Z,101231.03
2023-02-19T01:40:27.474Z,101193.22
2023-02-19T01:42:54.300Z,101222.78
2023-02-19T01:45:47.455Z,101214.31
2023-02-19T01:48:20.018Z,101089.19
2023-02-19T01:51:11.914Z,101209.22
2023-02-19T01:53:40.397Z,101202.75
2023-02-19T01:56:07.130Z,101175.63
2023-02-19T01:58:34.717Z,101146.50
2023-02-19T02:01:02.403Z,101152.06
2023-02-19T02:03:29.233Z,101189.53
2023-02-19T02:06:14.223Z,101185.88
2023-02-19T02:08:59.413Z,101106.47
2023-02-19T02:11:26.225Z,101100.28
2023-02-19T02:13:52.991Z,101199.03
2023-02-19T02:16:38.880Z,101193.41
2023-02-19T02:19:14.713Z,101193.16
2023-02-19T02:21:56.156Z,101192.34
2023-02-19T02:24:34.702Z,101193.25
2023-02-19T02:27:26.159Z,101187.38
2023-02-19T02:30:14.290Z,101188.53
2023-02-19T02:32:53.800Z,101185.88
2023-02-19T02:35:30.207Z,101172.00
2023-02-19T02:37:58.530Z,101143.16
2023-02-19T02:40:25.370Z,101199.97
2023-02-19T02:42:52.183Z,101168.41
2023-02-19T02:45:37.653Z,101198.63
2023-02-19T02:48:33.722Z,101191.09
2023-02-19T02:51:02.185Z,101198.69
2023-02-19T02:54:07.266Z,101190.25
2023-02-19T02:56:34.790Z,101186.28
2023-02-19T02:59:02.347Z,101135.09
2023-02-19T03:01:52.131Z,101197.78
2023-02-19T03:05:03.552Z,101184.28
2023-02-19T03:07:34.170Z,101178.06
2023-02-19T03:10:00.916Z,101200.81
2023-02-19T03:12:46.164Z,101173.56
2023-02-19T03:15:31.546Z,101155.66
2023-02-19T03:18:19.780Z,101171.84
2023-02-19T03:20:49.171Z,101175.22
2023-02-19T03:23:15.979Z,101173.78
2023-02-19T03:26:01.231Z,101149.16
2023-02-19T03:28:48.542Z,101161.09
2023-02-19T03:31:17.450Z,101133.38
2023-02-19T03:33:45.558Z,101157.44
2023-02-19T03:36:12.978Z,101168.41
2023-02-19T03:39:08.812Z,101114.66
2023-02-19T03:41:49.474Z,101164.81
2023-02-19T03:45:03.933Z,101155.34
2023-02-19T03:47:33.963Z,101127.13
2023-02-19T03:50:20.337Z,101112.63
2023-02-19T03:53:11.387Z,101148.97
2023-02-19T03:55:53.298Z,101147.81
2023-02-19T03:58:25.004Z,101153.16
2023-02-19T04:01:05.601Z,101152.59
2023-02-19T04:03:50.104Z,101149.25
2023-02-19T04:06:26.569Z,101144.75
2023-02-19T04:08:54.952Z,101128.34
2023-02-19T04:11:21.771Z,101148.75
2023-02-19T04:14:00.260Z,101129.16
2023-02-19T04:16:28.765Z,101102.28
2023-02-19T04:18:58.497Z,101152.41
2023-02-19T04:21:25.420Z,101100.34
2023-02-19T04:23:52.277Z,101124.94
2023-02-19T04:26:19.129Z,101090.66
2023-02-19T04:28:46.680Z,101143.50
2023-02-19T04:31:13.770Z,101134.56
2023-02-19T04:33:40.745Z,101144.41
2023-02-19T04:36:08.139Z,101136.84
2023-02-19T04:38:37.853Z,101134.06
2023-02-19T04:41:04.806Z,101135.72
2023-02-19T04:43:31.738Z,101135.72
2023-02-19T04:46:01.953Z,101121.13
2023-02-19T04:48:29.024Z,101082.50
2023-02-19T04:50:56.316Z,101095.69
2023-02-19T04:53:23.126Z,101129.78
2023-02-19T04:55:53.386Z,101140.44
2023-02-19T04:58:21.010Z,101014.47
2023-02-19T05:00:51.207Z,101134.50
2023-02-19T05:03:17.920Z,101118.25
2023-02-19T05:05:44.714Z,101130.84
2023-02-19T05:08:11.426Z,101135.09
2023-02-19T05:10:38.141Z,101130.63
2023-02-19T05:13:05.077Z,101134.00
2023-02-19T05:15:31.902Z,101135.19
2023-02-19T05:17:58.649Z,101110.56
2023-02-19T05:20:25.453Z,101143.09
2023-02-19T05:22:52.241Z,101146.44
2023-02-19T05:25:19.012Z,101137.19
2023-02-19T05:27:45.946Z,101143.88
2023-02-19T05:30:13.209Z,101081.19
2023-02-19T05:32:40.083Z,101145.28
2023-02-19T05:35:07.245Z,101131.81
2023-02-19T05:37:34.288Z,101113.06
2023-02-19T05:40:01.006Z,101151.94
2023-02-19T05:42:27.941Z,101136.25
2023-02-19T05:44:54.667Z,101155.84
2023-02-19T05:47:21.403Z,101141.03
2023-02-19T05:49:48.234Z,101148.25
2023-02-19T05:52:14.994Z,101156.09
2023-02-19T05:54:41.933Z,101091.75
2023-02-19T05:57:08.738Z,101142.94
2023-02-19T05:59:35.528Z,101034.09
2023-02-19T06:02:02.331Z,101128.50
2023-02-19T06:04:29.294Z,101150.28
2023-02-19T06:06:56.116Z,101144.34
2023-02-19T06:09:22.851Z,101142.13
2023-02-19T06:11:49.638Z,101141.84
2023-02-19T06:14:16.387Z,101157.56
2023-02-19T06:16:43.195Z,101152.78
2023-02-19T06:19:10.209Z,101137.94
2023-02-19T06:21:37.249Z,101116.94
2023-02-19T06:24:10.227Z,101102.66
2023-02-19T06:26:37.043Z,101148.56
2023-02-19T06:29:03.871Z,101154.75
2023-02-19T06:31:30.766Z,101130.69
2023-02-19T06:33:57.600Z,101131.50
2023-02-19T06:36:25.037Z,101138.78
2023-02-19T06:38:51.902Z,101140.47
2023-02-19T06:41:18.709Z,101096.25
2023-02-19T06:43:46.646Z,101038.88
2023-02-19T06:46:14.051Z,101158.69
2023-02-19T06:48:41.686Z,101126.25
2023-02-19T06:51:15.712Z,101153.16
2023-02-19T06:53:42.885Z,101165.00
2023-02-19T06:56:25.739Z,101162.47
2023-02-19T06:58:54.224Z,101118.00
2023-02-19T07:01:21.816Z,101167.84
2023-02-19T07:03:48.636Z,101126.97
2023-02-19T07:06:15.461Z,101160.00
2023-02-19T07:08:42.161Z,101126.41
2023-02-19T07:11:09.172Z,101151.94
2023-02-19T07:13:36.510Z,101146.91
2023-02-19T07:16:08.970Z,101162.88
2023-02-19T07:18:35.802Z,101175.78
2023-02-19T07:21:06.844Z,101147.44
2023-02-19T07:23:33.604Z,101162.31
2023-02-19T07:26:00.474Z,101097.84
2023-02-19T07:28:27.347Z,101069.28
2023-02-19T07:30:54.192Z,101127.75
2023-02-19T07:33:20.913Z,101170.88
2023-02-19T07:35:48.367Z,101164.38
2023-02-19T07:38:18.771Z,101158.22
2023-02-19T07:40:59.474Z,101166.34
2023-02-19T07:43:27.277Z,101107.28
2023-02-19T07:45:54.043Z,101175.88
2023-02-19T07:48:20.986Z,101152.09
2023-02-19T07:50:54.495Z,101061.94
2023-02-19T07:53:21.510Z,101178.16
2023-02-19T07:55:48.280Z,101183.22
2023-02-19T07:58:14.992Z,101112.66
2023-02-19T08:00:41.882Z,101182.66
2023-02-19T08:03:09.231Z,101177.00
2023-02-19T08:05:40.467Z,101177.28
2023-02-19T08:08:08.518Z,101120.97
2023-02-19T08:10:53.772Z,101180.06
2023-02-19T08:13:22.693Z,101179.50
2023-02-19T08:15:50.815Z,101169.41
2023-02-19T08:18:18.578Z,101170.56
2023-02-19T08:20:45.508Z,101182.31
2023-02-19T08:23:12.568Z,101192.13
2023-02-19T08:25:39.829Z,101115.13
2023-02-19T08:28:06.996Z,101160.16
2023-02-19T08:30:34.054Z,101181.75
2023-02-19T08:33:02.273Z,101052.13
2023-02-19T08:35:29.577Z,101189.59
2023-02-19T08:37:57.488Z,101192.97
2023-02-19T08:40:24.920Z,101191.53
2023-02-19T08:42:51.871Z,101176.66
2023-02-19T08:45:18.749Z,101184.44
2023-02-19T08:47:45.729Z,101191.66
2023-02-19T08:50:12.931Z,101177.56
2023-02-19T08:52:39.766Z,101204.06
2023-02-19T08:55:06.967Z,101198.69
2023-02-19T08:57:37.838Z,101174.97
2023-02-19T09:00:06.028Z,101199.78
2023-02-19T09:02:33.038Z,101204.47
2023-02-19T09:04:59.903Z,101203.31
2023-02-19T09:07:26.860Z,101182.56
2023-02-19T09:09:53.802Z,101204.38
2023-02-19T09:12:20.804Z,101196.53
2023-02-19T09:14:47.890Z,101097.25
2023-02-19T09:17:14.694Z,101183.03
2023-02-19T09:19:41.645Z,101198.88
2023-02-19T09:22:08.416Z,101209.19
2023-02-19T09:24:35.189Z,101165.94
2023-02-19T09:27:02.059Z,101192.69
2023-02-19T09:29:29.026Z,101194.31
2023-02-19T09:31:57.288Z,101148.88
2023-02-19T09:34:25.106Z,101144.38
2023-02-19T09:36:52.144Z,101175.44
2023-02-19T09:39:18.981Z,101186.28
2023-02-19T09:41:57.330Z,101188.50
2023-02-19T09:44:34.697Z,101186.81
2023-02-19T09:47:02.054Z,101156.88
2023-02-19T09:49:33.840Z,101140.22
2023-02-19T09:52:13.044Z,101140.53
2023-02-19T09:54:39.857Z,101177.94
2023-02-19T09:57:06.696Z,101158.91
2023-02-19T09:59:41.239Z,101181.91
2023-02-19T10:02:30.489Z,101187.41
2023-02-19T10:04:57.361Z,101119.97
2023-02-19T10:07:25.826Z,101181.53
2023-02-19T10:10:23.772Z,101143.66
2023-02-19T10:12:52.647Z,101124.38
2023-02-19T10:15:39.356Z,101189.56
2023-02-19T10:18:08.833Z,101146.66
2023-02-19T10:20:37.638Z,101182.38
2023-02-19T10:23:06.161Z,101181.44
2023-02-19T10:25:33.753Z,101199.88
2023-02-19T10:28:01.041Z,101191.41
2023-02-19T10:30:32.985Z,101181.34
2023-02-19T10:33:21.153Z,101094.63
2023-02-19T10:36:05.544Z,101202.03
2023-02-19T10:38:45.999Z,101166.88
2023-02-19T10:41:23.362Z,101204.69
2023-02-19T10:43:54.871Z,101197.09
2023-02-19T10:46:29.726Z,101205.34
2023-02-19T10:48:58.734Z,101102.19
2023-02-19T10:51:39.135Z,101138.91
2023-02-19T10:54:24.466Z,101198.66
2023-02-19T10:56:51.240Z,101209.53
2023-02-19T10:59:30.201Z,101201.78
2023-02-19T11:01:57.956Z,101139.44
2023-02-19T11:04:26.237Z,101179.16
2023-02-19T11:06:53.200Z,101175.59
2023-02-19T11:09:38.931Z,101158.03
2023-02-19T11:12:08.343Z,101197.66
2023-02-19T11:14:35.272Z,101196.91
2023-02-19T11:17:05.046Z,101138.13
2023-02-19T11:19:36.918Z,101192.69
2023-02-19T11:22:42.160Z,101172.28
2023-02-19T11:25:14.963Z,101185.88
2023-02-19T11:28:10.659Z,101183.88
2023-02-19T11:30:38.745Z,101185.34
2023-02-19T11:33:17.863Z,101176.16
2023-02-19T11:35:44.729Z,101177.09
2023-02-19T11:38:13.010Z,101167.59
2023-02-19T11:40:41.377Z,101175.53
2023-02-19T11:43:26.786Z,101158.91
2023-02-19T11:46:24.959Z,101154.59
2023-02-19T11:49:10.230Z,101167.47
2023-02-19T11:52:01.777Z,101159.19
2023-02-19T11:54:34.309Z,101153.09
2023-02-19T11:57:10.418Z,101154.41
2023-02-19T12:00:03.295Z,101151.78
2023-02-19T12:03:04.072Z,101111.41
2023-02-19T12:05:56.751Z,101141.22
2023-02-19T12:08:38.430Z,101127.56
2023-02-19T12:11:12.401Z,101131.44
2023-02-19T12:14:09.225Z,101136.88
2023-02-19T12:16:38.866Z,101141.94
2023-02-19T12:19:18.817Z,101129.97
2023-02-19T12:22:09.903Z,101129.84
2023-02-19T12:25:11.568Z,101128.16
2023-02-19T12:27:47.419Z,101127.44
2023-02-19T12:30:23.206Z,101129.00
2023-02-19T12:33:12.070Z,101106.28
2023-02-19T12:35:48.164Z,101102.19
2023-02-19T12:38:23.435Z,101089.09
2023-02-19T12:41:17.994Z,101098.63
2023-02-19T12:44:08.648Z,101102.69
2023-02-19T12:46:37.833Z,101097.75
2023-02-19T12:49:10.924Z,101093.94
2023-02-19T12:51:55.349Z,101050.09
2023-02-19T12:54:34.659Z,101082.91
2023-02-19T12:57:02.583Z,101088.97
2023-02-19T12:59:55.536Z,101078.84
2023-02-19T13:02:44.351Z,101078.47
2023-02-19T13:05:39.006Z,101080.13
2023-02-19T13:08:21.548Z,101078.00
2023-02-19T13:10:51.991Z,101048.97
2023-02-19T13:13:42.479Z,101056.66
2023-02-19T13:16:15.104Z,101057.78
2023-02-19T13:18:52.501Z,101049.09
2023-02-19T13:21:39.938Z,101011.63
2023-02-19T13:24:09.519Z,101019.63
2023-02-19T13:27:08.735Z,101053.50
2023-02-19T13:29:35.411Z,101033.84
2023-02-19T13:32:17.244Z,101051.84
2023-02-19T13:35:29.940Z,100977.81
2023-02-19T13:37:59.880Z,101043.56
2023-02-19T13:40:37.627Z,101029.84
2023-02-19T13:43:08.690Z,101012.53
2023-02-19T13:45:39.382Z,101023.34
2023-02-19T13:48:24.621Z,101017.13
2023-02-19T13:51:11.908Z,101012.00
2023-02-19T13:53:51.998Z,101003.50
2023-02-19T13:56:34.345Z,100933.38
2023-02-19T13:59:22.362Z,101005.34
2023-02-19T14:01:52.058Z,101005.69
2023-02-19T14:04:24.391Z,101009.19
2023-02-19T14:07:03.332Z,100996.34
2023-02-19T14:09:44.075Z,100988.69
2023-02-19T14:12:10.795Z,101000.88
2023-02-19T14:14:49.676Z,100992.53
2023-02-19T14:17:38.313Z,100978.41
2023-02-19T14:20:17.355Z,100976.25
2023-02-19T14:23:01.721Z,100973.47
2023-02-19T14:25:32.030Z,100977.31
2023-02-19T14:28:11.734Z,100964.50
2023-02-19T14:30:50.015Z,100924.66
2023-02-19T14:33:18.178Z,100957.66
2023-02-19T14:35:46.669Z,100949.66
2023-02-19T14:38:26.366Z,100926.66
2023-02-19T14:40:53.298Z,100948.84
2023-02-19T14:43:21.079Z,100943.00
2023-02-19T14:45:50.375Z,100949.00
2023-02-19T14:48:22.680Z,100788.59
2023-02-19T14:50:51.341Z,100867.41
2023-02-19T14:53:18.109Z,100944.03
2023-02-19T14:55:45.436Z,100938.22
2023-02-19T14:58:44.681Z,100908.19
2023-02-19T15:01:27.748Z,100921.53
2023-02-19T15:03:55.382Z,100884.72
2023-02-19T15:06:23.775Z,100927.19
2023-02-19T15:08:56.494Z,100895.38
2023-02-19T15:11:24.775Z,100862.88
2023-02-19T15:14:15.227Z,100902.19
2023-02-19T15:16:41.929Z,100923.34
2023-02-19T15:19:09.487Z,100917.00
2023-02-19T15:21:39.397Z,100896.34
2023-02-19T15:24:06.397Z,100912.03
2023-02-19T15:26:43.148Z,100902.31
2023-02-19T15:29:14.105Z,100855.41
2023-02-19T15:31:57.832Z,100865.53
2023-02-19T15:34:26.158Z,100861.38
2023-02-19T15:36:58.665Z,100890.19
2023-02-19T15:39:34.303Z,100894.69
2023-02-19T15:42:02.268Z,100852.56
2023-02-19T15:44:43.385Z,100853.75
2023-02-19T15:47:15.798Z,100897.06
2023-02-19T15:50:08.837Z,100893.22
2023-02-19T15:52:37.827Z,100900.75
2023-02-19T15:55:04.481Z,100898.91
2023-02-19T15:57:35.323Z,100866.41
2023-02-19T16:00:46.831Z,100892.41
2023-02-19T16:03:19.826Z,100877.75
2023-02-19T16:05:47.099Z,100884.59
2023-02-19T16:08:19.542Z,100868.09
2023-02-19T16:10:54.490Z,100853.41
2023-02-19T16:13:26.678Z,100875.75
2023-02-19T16:16:10.856Z,100848.06
2023-02-19T16:18:37.679Z,100875.94
2023-02-19T16:21:07.732Z,100878.56
2023-02-19T16:23:34.671Z,100882.25
2023-02-19T16:26:02.180Z,100888.41
2023-02-19T16:28:30.616Z,100844.56
2023-02-19T16:31:04.606Z,100877.91
2023-02-19T16:33:37.185Z,100885.09
2023-02-19T16:36:36.021Z,100876.09
2023-02-19T16:39:09.339Z,100884.06
2023-02-19T16:41:48.720Z,100879.59
2023-02-19T16:44:21.434Z,100868.59
2023-02-19T16:46:49.837Z,100829.25
2023-02-19T16:49:16.677Z,100867.72
2023-02-19T16:51:44.595Z,100865.38
2023-02-19T16:54:11.674Z,100874.56
2023-02-19T16:56:38.603Z,100885.38
2023-02-19T16:59:09.645Z,100834.91
2023-02-19T17:01:36.585Z,100882.56
2023-02-19T17:04:05.350Z,100846.41
2023-02-19T17:06:32.976Z,100889.03
2023-02-19T17:08:59.927Z,100891.22
2023-02-19T17:11:26.767Z,100890.53
2023-02-19T17:13:53.471Z,100887.53
2023-02-19T17:16:25.175Z,100879.00
2023-02-19T17:18:52.100Z,100845.19
2023-02-19T17:21:23.154Z,100886.00
2023-02-19T17:23:51.534Z,100883.31
2023-02-19T17:26:20.298Z,100850.16
2023-02-19T17:28:47.179Z,100872.44
2023-02-19T17:31:14.812Z,100891.59
2023-02-19T17:33:41.709Z,100890.59
2023-02-19T17:36:08.827Z,100878.53
2023-02-19T17:38:35.643Z,100896.72
2023-02-19T17:41:02.459Z,100856.50
2023-02-19T17:43:29.252Z,100906.81
2023-02-19T17:45:56.178Z,100903.00
2023-02-19T17:48:25.226Z,100901.16
2023-02-19T17:50:52.391Z,100907.75
2023-02-19T17:53:19.370Z,100854.53
2023-02-19T17:55:46.289Z,100905.75
2023-02-19T17:58:13.430Z,100909.34
2023-02-19T18:00:40.234Z,100907.50
2023-02-19T18:03:10.653Z,100912.63
2023-02-19T18:05:37.464Z,100918.44
2023-02-19T18:08:04.325Z,100872.38
2023-02-19T18:10:31.221Z,100908.22
2023-02-19T18:12:57.943Z,100901.19
2023-02-19T18:15:27.124Z,100878.66
2023-02-19T18:17:54.670Z,100901.94
2023-02-19T18:20:28.465Z,100850.34
2023-02-19T18:22:55.508Z,100915.19
2023-02-19T18:25:22.966Z,100787.38
2023-02-19T18:27:49.919Z,100931.66
2023-02-19T18:30:19.008Z,100914.31
2023-02-19T18:32:48.175Z,100856.34
2023-02-19T18:35:15.870Z,100926.81
2023-02-19T18:37:42.940Z,100927.13
2023-02-19T18:40:10.517Z,100932.56
2023-02-19T18:42:37.466Z,100935.19
2023-02-19T18:45:04.556Z,100938.66
2023-02-19T18:47:31.386Z,100941.28
2023-02-19T18:49:58.638Z,100942.72
2023-02-19T18:52:26.472Z,100931.91
2023-02-19T18:54:56.124Z,100945.34
2023-02-19T18:57:23.695Z,100921.34
2023-02-19T18:59:50.677Z,100903.06
2023-02-19T19:02:17.758Z,100947.69
2023-02-19T19:04:51.250Z,100948.84
2023-02-19T19:07:18.926Z,100939.31
2023-02-19T19:09:45.698Z,100927.94
2023-02-19T19:12:14.950Z,100909.88
2023-02-19T19:14:41.729Z,100850.72
2023-02-19T19:17:08.614Z,100936.63
2023-02-19T19:19:35.453Z,100948.50
2023-02-19T19:22:02.259Z,100847.41
2023-02-19T19:24:29.010Z,100960.34
2023-02-19T19:26:55.876Z,100922.81
2023-02-19T19:29:23.156Z,100888.06
2023-02-19T19:31:50.244Z,100914.25
2023-02-19T19:34:17.363Z,100949.53
2023-02-19T19:36:44.572Z,100943.91
2023-02-19T19:39:11.435Z,100888.56
2023-02-19T19:41:38.292Z,100917.34
2023-02-19T19:44:05.631Z,100931.16
2023-02-19T19:46:34.325Z,100898.38
2023-02-19T19:49:01.371Z,100942.09
2023-02-19T19:51:34.417Z,100925.28
2023-02-19T19:54:03.193Z,100929.28
2023-02-19T19:56:30.387Z,100923.63
2023-02-19T19:58:57.319Z,100922.56
2023-02-19T20:01:24.153Z,100871.13
2023-02-19T20:03:53.785Z,100925.09
2023-02-19T20:06:30.996Z,100930.50
2023-02-19T20:08:58.086Z,100933.34
2023-02-19T20:11:24.839Z,100936.16
2023-02-19T20:13:51.801Z,100922.78
2023-02-19T20:16:24.436Z,100910.44
2023-02-19T20:18:51.159Z,100914.31
2023-02-19T20:21:18.011Z,100926.03
2023-02-19T20:23:45.069Z,100898.75
2023-02-19T20:26:11.877Z,100921.50
2023-02-19T20:28:38.732Z,100901.91
2023-02-19T20:31:05.494Z,100883.72
2023-02-19T20:33:32.269Z,100851.47
2023-02-19T20:35:59.515Z,100874.56
2023-02-19T20:38:26.324Z,100916.63
2023-02-19T20:40:53.164Z,100913.28
2023-02-19T20:43:19.993Z,100895.00
2023-02-19T20:45:47.907Z,100871.84
2023-02-19T20:48:18.129Z,100904.19
2023-02-19T20:50:45.030Z,100903.00
2023-02-19T20:53:11.811Z,100852.91
2023-02-19T20:55:38.843Z,100898.72
2023-02-19T20:58:05.688Z,100908.38
2023-02-19T21:00:32.443Z,100834.22
2023-02-19T21:02:59.279Z,100862.22
2023-02-19T21:05:26.286Z,100868.13
2023-02-19T21:07:53.082Z,100750.59
2023-02-19T21:10:19.848Z,100899.75
2023-02-19T21:12:46.809Z,100895.84
2023-02-19T21:15:14.837Z,100790.81
2023-02-19T21:17:44.869Z,100901.09
2023-02-19T21:20:11.975Z,100904.63
2023-02-19T21:22:38.802Z,100904.75
2023-02-19T21:25:05.930Z,100904.84
2023-02-19T21:27:32.847Z,100907.69
2023-02-19T21:29:59.575Z,100900.03
2023-02-19T21:32:26.469Z,100897.44
2023-02-19T21:34:53.507Z,100783.50
2023-02-19T21:37:20.318Z,100905.66
2023-02-19T21:39:47.213Z,100858.47
2023-02-19T21:42:14.108Z,100905.78
2023-02-19T21:44:42.985Z,100861.81
2023-02-19T21:47:11.199Z,100892.88
2023-02-19T21:49:38.247Z,100775.16
2023-02-19T21:52:05.095Z,100848.63
2023-02-19T21:54:32.245Z,100834.31
2023-02-19T21:57:01.938Z,100832.03
2023-02-19T21:59:28.587Z,100894.22
2023-02-19T22:01:57.130Z,100906.66
2023-02-19T22:04:27.844Z,100896.19
2023-02-19T22:06:55.427Z,100814.59
2023-02-19T22:09:22.173Z,100764.19
2023-02-19T22:11:49.042Z,100828.16
2023-02-19T22:14:15.915Z,100846.69
2023-02-19T22:16:42.719Z,100891.78
2023-02-19T22:19:09.822Z,100856.09
2023-02-19T22:21:36.610Z,100814.97
2023-02-19T22:24:03.981Z,100860.88
2023-02-19T22:26:36.028Z,100848.78
2023-02-19T22:29:07.351Z,100829.81
2023-02-19T22:31:34.476Z,100834.44
2023-02-19T22:34:01.416Z,100856.34
2023-02-19T22:36:31.107Z,100884.72
2023-02-19T22:38:57.887Z,100879.06
2023-02-19T22:41:24.854Z,100852.78
2023-02-19T22:43:54.415Z,100844.41
2023-02-19T22:46:24.817Z,100873.47
2023-02-19T22:48:51.638Z,100868.06
2023-02-19T22:51:20.229Z,100859.78
2023-02-19T22:53:51.342Z,100832.53
2023-02-19T22:56:19.371Z,100857.00
2023-02-19T22:58:46.194Z,100856.91
2023-02-19T23:01:13.320Z,100892.28
2023-02-19T23:03:53.001Z,100888.09
2023-02-19T23:06:26.688Z,100884.44
2023-02-19T23:08:54.412Z,100882.19
2023-02-19T23:11:29.006Z,100873.31
2023-02-19T23:13:55.911Z,100878.97
2023-02-19T23:16:22.707Z,100850.78
2023-02-19T23:18:49.845Z,100697.13
2023-02-19T23:21:16.697Z,100792.72
2023-02-19T23:23:43.783Z,100884.81
2023-02-19T23:26:10.821Z,100882.28
2023-02-19T23:28:39.577Z,100857.97
2023-02-19T23:31:06.775Z,100874.59
2023-02-19T23:33:33.937Z,100814.00
2023-02-19T23:36:00.780Z,100823.59
2023-02-19T23:38:27.695Z,100852.94
2023-02-19T23:40:54.482Z,100864.31
2023-02-19T23:43:21.977Z,100824.44
2023-02-19T23:45:49.869Z,100869.78
2023-02-19T23:48:16.963Z,100868.00
2023-02-19T23:50:43.800Z,100865.56
2023-02-19T23:53:10.561Z,100864.94
2023-02-19T23:55:37.380Z,100859.84
2023-02-19T23:58:04.103Z,100844.06
